sensor_id;sensor_type;location;lat;lon;timestamp;P1;durP1;ratioP1;P2;durP2;ratioP2
3085;SDS011;52812;48.960;9.108;2022-09-01T00:02:03;11.50;;;9.47;;
3085;SDS011;52812;48.960;9.108;2022-09-01T00:04:32;9.20;;;8.30;;
3085;SDS011;52812;48.960;9.108;2022-09-01T00:07:02;10.33;;;9.33;;
3085;SDS011;52812;48.960;9.108;2022-09-01T00:09:29;10.13;;;9.13;;
3085;SDS011;52812;48.960;9.108;2022-09-01T00:11:55;10.43;;;9.20;;
3085;SDS011;52812;48.960;9.108;2022-09-01T00:14:22;10.17;;;9.10;;
3085;SDS011;52812;48.960;9.108;2022-09-01T00:16:50;11.97;;;8.83;;
3085;SDS011;52812;48.960;9.108;2022-09-01T00:19:15;12.57;;;9.83;;
3085;SDS011;52812;48.960;9.108;2022-09-01T00:21:42;10.67;;;9.13;;
3085;SDS011;52812;48.960;9.108;2022-09-01T00:24:09;11.90;;;9.50;;
3085;SDS011;52812;48.960;9.108;2022-09-01T00:26:37;11.73;;;10.13;;
3085;SDS011;52812;48.960;9.108;2022-09-01T00:29:03;12.03;;;9.40;;
3085;SDS011;52812;48.960;9.108;2022-09-01T00:31:29;12.13;;;10.60;;
3085;SDS011;52812;48.960;9.108;2022-09-01T00:33:55;11.87;;;10.67;;
3085;SDS011;52812;48.960;9.108;2022-09-01T00:36:21;12.47;;;8.83;;
3085;SDS011;52812;48.960;9.108;2022-09-01T00:38:47;10.30;;;8.67;;
3085;SDS011;52812;48.960;9.108;2022-09-01T00:41:17;11.67;;;8.93;;
3085;SDS011;52812;48.960;9.108;2022-09-01T00:43:46;10.07;;;8.77;;
3085;SDS011;52812;48.960;9.108;2022-09-01T00:46:18;10.27;;;9.17;;
3085;SDS011;52812;48.960;9.108;2022-09-01T00:48:53;11.40;;;9.60;;
3085;SDS011;52812;48.960;9.108;2022-09-01T00:51:28;12.07;;;9.03;;
3085;SDS011;52812;48.960;9.108;2022-09-01T00:53:57;13.10;;;10.80;;
3085;SDS011;52812;48.960;9.108;2022-09-01T00:56:24;13.53;;;11.20;;
3085;SDS011;52812;48.960;9.108;2022-09-01T00:58:50;14.80;;;11.23;;
3085;SDS011;52812;48.960;9.108;2022-09-01T01:01:17;12.90;;;10.13;;
3085;SDS011;52812;48.960;9.108;2022-09-01T01:03:43;11.90;;;10.70;;
3085;SDS011;52812;48.960;9.108;2022-09-01T01:06:11;14.23;;;11.07;;
3085;SDS011;52812;48.960;9.108;2022-09-01T01:08:40;12.23;;;10.40;;
3085;SDS011;52812;48.960;9.108;2022-09-01T01:11:21;13.10;;;11.00;;
3085;SDS011;52812;48.960;9.108;2022-09-01T01:13:50;12.03;;;9.40;;
3085;SDS011;52812;48.960;9.108;2022-09-01T01:16:16;10.37;;;8.97;;
3085;SDS011;52812;48.960;9.108;2022-09-01T01:18:42;11.50;;;9.40;;
3085;SDS011;52812;48.960;9.108;2022-09-01T01:21:09;11.63;;;9.37;;
3085;SDS011;52812;48.960;9.108;2022-09-01T01:24:04;13.00;;;10.77;;
3085;SDS011;52812;48.960;9.108;2022-09-01T01:26:31;15.50;;;10.97;;
3085;SDS011;52812;48.960;9.108;2022-09-01T01:28:58;14.67;;;11.40;;
3085;SDS011;52812;48.960;9.108;2022-09-01T01:31:25;11.43;;;10.20;;
3085;SDS011;52812;48.960;9.108;2022-09-01T01:33:52;12.23;;;10.50;;
3085;SDS011;52812;48.960;9.108;2022-09-01T01:36:22;11.97;;;10.63;;
3085;SDS011;52812;48.960;9.108;2022-09-01T01:39:00;13.57;;;9.80;;
3085;SDS011;52812;48.960;9.108;2022-09-01T01:41:31;14.30;;;10.60;;
3085;SDS011;52812;48.960;9.108;2022-09-01T01:43:58;12.30;;;9.70;;
3085;SDS011;52812;48.960;9.108;2022-09-01T01:46:28;18.23;;;10.43;;
3085;SDS011;52812;48.960;9.108;2022-09-01T01:48:56;11.30;;;9.70;;
3085;SDS011;52812;48.960;9.108;2022-09-01T01:51:22;11.23;;;9.13;;
3085;SDS011;52812;48.960;9.108;2022-09-01T01:53:51;12.77;;;9.20;;
3085;SDS011;52812;48.960;9.108;2022-09-01T01:56:21;12.10;;;10.20;;
3085;SDS011;52812;48.960;9.108;2022-09-01T01:58:53;12.70;;;9.90;;
3085;SDS011;52812;48.960;9.108;2022-09-01T02:01:22;11.63;;;9.70;;
3085;SDS011;52812;48.960;9.108;2022-09-01T02:03:49;11.57;;;9.43;;
3085;SDS011;52812;48.960;9.108;2022-09-01T02:06:19;13.20;;;10.60;;
3085;SDS011;52812;48.960;9.108;2022-09-01T02:08:49;11.63;;;9.90;;
3085;SDS011;52812;48.960;9.108;2022-09-01T02:11:17;11.97;;;10.20;;
3085;SDS011;52812;48.960;9.108;2022-09-01T02:13:42;12.13;;;9.83;;
3085;SDS011;52812;48.960;9.108;2022-09-01T02:16:10;11.57;;;9.77;;
3085;SDS011;52812;48.960;9.108;2022-09-01T02:18:42;11.83;;;9.83;;
3085;SDS011;52812;48.960;9.108;2022-09-01T02:21:12;13.13;;;11.10;;
3085;SDS011;52812;48.960;9.108;2022-09-01T02:23:43;14.17;;;10.87;;
3085;SDS011;52812;48.960;9.108;2022-09-01T02:26:13;15.03;;;10.83;;
3085;SDS011;52812;48.960;9.108;2022-09-01T02:28:40;12.80;;;11.20;;
3085;SDS011;52812;48.960;9.108;2022-09-01T02:31:07;14.77;;;10.97;;
3085;SDS011;52812;48.960;9.108;2022-09-01T02:33:36;12.13;;;10.60;;
3085;SDS011;52812;48.960;9.108;2022-09-01T02:36:04;12.93;;;10.10;;
3085;SDS011;52812;48.960;9.108;2022-09-01T02:38:32;12.77;;;10.53;;
3085;SDS011;52812;48.960;9.108;2022-09-01T02:40:58;13.00;;;10.57;;
3085;SDS011;52812;48.960;9.108;2022-09-01T02:43:26;14.20;;;11.20;;
3085;SDS011;52812;48.960;9.108;2022-09-01T02:45:53;13.70;;;11.20;;
3085;SDS011;52812;48.960;9.108;2022-09-01T02:48:23;13.93;;;11.20;;
3085;SDS011;52812;48.960;9.108;2022-09-01T02:51:14;15.50;;;11.63;;
3085;SDS011;52812;48.960;9.108;2022-09-01T02:53:42;13.50;;;11.03;;
3085;SDS011;52812;48.960;9.108;2022-09-01T02:56:10;12.57;;;10.93;;
3085;SDS011;52812;48.960;9.108;2022-09-01T02:58:38;13.50;;;11.30;;
3085;SDS011;52812;48.960;9.108;2022-09-01T03:01:29;15.70;;;11.33;;
3085;SDS011;52812;48.960;9.108;2022-09-01T03:03:58;13.73;;;11.47;;
3085;SDS011;52812;48.960;9.108;2022-09-01T03:06:29;13.47;;;10.30;;
3085;SDS011;52812;48.960;9.108;2022-09-01T03:08:58;16.70;;;11.60;;
3085;SDS011;52812;48.960;9.108;2022-09-01T03:11:24;12.73;;;10.40;;
3085;SDS011;52812;48.960;9.108;2022-09-01T03:13:51;16.30;;;11.67;;
3085;SDS011;52812;48.960;9.108;2022-09-01T03:16:17;14.93;;;12.23;;
3085;SDS011;52812;48.960;9.108;2022-09-01T03:18:44;13.57;;;10.80;;
3085;SDS011;52812;48.960;9.108;2022-09-01T03:21:09;12.77;;;10.50;;
3085;SDS011;52812;48.960;9.108;2022-09-01T03:23:41;15.90;;;13.00;;
3085;SDS011;52812;48.960;9.108;2022-09-01T03:26:07;16.20;;;12.63;;
3085;SDS011;52812;48.960;9.108;2022-09-01T03:28:33;16.07;;;13.13;;
3085;SDS011;52812;48.960;9.108;2022-09-01T03:30:59;17.80;;;14.57;;
3085;SDS011;52812;48.960;9.108;2022-09-01T03:33:25;18.57;;;14.00;;
3085;SDS011;52812;48.960;9.108;2022-09-01T03:35:54;16.43;;;14.30;;
3085;SDS011;52812;48.960;9.108;2022-09-01T03:38:20;13.23;;;11.10;;
3085;SDS011;52812;48.960;9.108;2022-09-01T03:40:46;12.83;;;10.50;;
3085;SDS011;52812;48.960;9.108;2022-09-01T03:43:14;11.93;;;10.63;;
3085;SDS011;52812;48.960;9.108;2022-09-01T03:45:41;13.27;;;11.00;;
3085;SDS011;52812;48.960;9.108;2022-09-01T03:48:07;15.77;;;11.07;;
3085;SDS011;52812;48.960;9.108;2022-09-01T03:50:38;12.00;;;10.37;;
3085;SDS011;52812;48.960;9.108;2022-09-01T03:53:09;13.23;;;11.10;;
3085;SDS011;52812;48.960;9.108;2022-09-01T03:55:37;15.17;;;11.30;;
3085;SDS011;52812;48.960;9.108;2022-09-01T03:58:04;14.60;;;11.50;;
3085;SDS011;52812;48.960;9.108;2022-09-01T04:00:37;12.67;;;11.13;;
3085;SDS011;52812;48.960;9.108;2022-09-01T04:03:05;14.17;;;11.53;;
3085;SDS011;52812;48.960;9.108;2022-09-01T04:05:33;13.27;;;10.60;;
3085;SDS011;52812;48.960;9.108;2022-09-01T04:08:02;12.80;;;10.80;;
3085;SDS011;52812;48.960;9.108;2022-09-01T04:10:31;16.33;;;12.00;;
3085;SDS011;52812;48.960;9.108;2022-09-01T04:12:59;15.60;;;11.70;;
3085;SDS011;52812;48.960;9.108;2022-09-01T04:15:25;16.03;;;12.50;;
3085;SDS011;52812;48.960;9.108;2022-09-01T04:17:52;19.60;;;15.27;;
3085;SDS011;52812;48.960;9.108;2022-09-01T04:20:44;18.63;;;15.10;;
3085;SDS011;52812;48.960;9.108;2022-09-01T04:23:16;17.50;;;13.03;;
3085;SDS011;52812;48.960;9.108;2022-09-01T04:25:46;18.47;;;14.33;;
3085;SDS011;52812;48.960;9.108;2022-09-01T04:28:14;16.20;;;13.70;;
3085;SDS011;52812;48.960;9.108;2022-09-01T04:30:56;19.60;;;15.10;;
3085;SDS011;52812;48.960;9.108;2022-09-01T04:33:26;19.90;;;15.00;;
3085;SDS011;52812;48.960;9.108;2022-09-01T04:36:01;19.40;;;15.23;;
3085;SDS011;52812;48.960;9.108;2022-09-01T04:38:27;26.70;;;16.97;;
3085;SDS011;52812;48.960;9.108;2022-09-01T04:40:53;21.30;;;16.60;;
3085;SDS011;52812;48.960;9.108;2022-09-01T04:43:21;22.83;;;16.70;;
3085;SDS011;52812;48.960;9.108;2022-09-01T04:45:47;21.60;;;16.13;;
3085;SDS011;52812;48.960;9.108;2022-09-01T04:48:16;21.70;;;14.90;;
3085;SDS011;52812;48.960;9.108;2022-09-01T04:50:43;25.73;;;16.80;;
3085;SDS011;52812;48.960;9.108;2022-09-01T04:53:09;27.00;;;19.33;;
3085;SDS011;52812;48.960;9.108;2022-09-01T04:55:37;26.73;;;19.60;;
3085;SDS011;52812;48.960;9.108;2022-09-01T04:58:07;27.50;;;19.47;;
3085;SDS011;52812;48.960;9.108;2022-09-01T05:00:34;32.83;;;22.77;;
3085;SDS011;52812;48.960;9.108;2022-09-01T05:03:01;30.87;;;20.63;;
3085;SDS011;52812;48.960;9.108;2022-09-01T05:05:34;27.97;;;19.83;;
3085;SDS011;52812;48.960;9.108;2022-09-01T05:08:10;23.73;;;17.00;;
3085;SDS011;52812;48.960;9.108;2022-09-01T05:10:39;23.57;;;17.30;;
3085;SDS011;52812;48.960;9.108;2022-09-01T05:13:08;24.07;;;16.97;;
3085;SDS011;52812;48.960;9.108;2022-09-01T05:15:41;26.20;;;19.20;;
3085;SDS011;52812;48.960;9.108;2022-09-01T05:18:11;27.30;;;18.57;;
3085;SDS011;52812;48.960;9.108;2022-09-01T05:20:41;28.33;;;19.40;;
3085;SDS011;52812;48.960;9.108;2022-09-01T05:23:10;33.90;;;20.00;;
3085;SDS011;52812;48.960;9.108;2022-09-01T05:25:37;27.87;;;20.30;;
3085;SDS011;52812;48.960;9.108;2022-09-01T05:28:05;30.00;;;20.67;;
3085;SDS011;52812;48.960;9.108;2022-09-01T05:30:33;25.20;;;18.67;;
3085;SDS011;52812;48.960;9.108;2022-09-01T05:33:00;28.53;;;19.60;;
3085;SDS011;52812;48.960;9.108;2022-09-01T05:35:27;25.73;;;17.73;;
3085;SDS011;52812;48.960;9.108;2022-09-01T05:37:53;23.30;;;16.37;;
3085;SDS011;52812;48.960;9.108;2022-09-01T05:40:19;24.63;;;16.20;;
3085;SDS011;52812;48.960;9.108;2022-09-01T05:42:45;22.63;;;16.80;;
3085;SDS011;52812;48.960;9.108;2022-09-01T05:45:11;24.90;;;17.17;;
3085;SDS011;52812;48.960;9.108;2022-09-01T05:47:38;20.67;;;15.33;;
3085;SDS011;52812;48.960;9.108;2022-09-01T05:50:04;24.47;;;16.13;;
3085;SDS011;52812;48.960;9.108;2022-09-01T05:52:33;23.07;;;15.37;;
3085;SDS011;52812;48.960;9.108;2022-09-01T05:55:02;30.93;;;15.93;;
3085;SDS011;52812;48.960;9.108;2022-09-01T05:57:31;20.58;;;15.88;;
3085;SDS011;52812;48.960;9.108;2022-09-01T05:59:57;23.80;;;15.30;;
3085;SDS011;52812;48.960;9.108;2022-09-01T06:02:23;20.33;;;15.30;;
3085;SDS011;52812;48.960;9.108;2022-09-01T06:04:50;19.60;;;14.50;;
3085;SDS011;52812;48.960;9.108;2022-09-01T06:07:21;20.13;;;15.03;;
3085;SDS011;52812;48.960;9.108;2022-09-01T06:09:47;16.93;;;13.60;;
3085;SDS011;52812;48.960;9.108;2022-09-01T06:12:14;19.47;;;13.10;;
3085;SDS011;52812;48.960;9.108;2022-09-01T06:14:47;18.13;;;14.37;;
3085;SDS011;52812;48.960;9.108;2022-09-01T06:17:14;19.17;;;14.20;;
3085;SDS011;52812;48.960;9.108;2022-09-01T06:19:43;20.90;;;14.70;;
3085;SDS011;52812;48.960;9.108;2022-09-01T06:22:09;21.17;;;14.97;;
3085;SDS011;52812;48.960;9.108;2022-09-01T06:24:36;18.00;;;14.40;;
3085;SDS011;52812;48.960;9.108;2022-09-01T06:27:05;19.03;;;14.13;;
3085;SDS011;52812;48.960;9.108;2022-09-01T06:29:33;17.10;;;13.90;;
3085;SDS011;52812;48.960;9.108;2022-09-01T06:32:04;18.63;;;13.80;;
3085;SDS011;52812;48.960;9.108;2022-09-01T06:34:34;15.90;;;12.83;;
3085;SDS011;52812;48.960;9.108;2022-09-01T06:37:03;16.80;;;13.67;;
3085;SDS011;52812;48.960;9.108;2022-09-01T06:39:30;16.83;;;13.17;;
3085;SDS011;52812;48.960;9.108;2022-09-01T06:41:58;15.10;;;12.90;;
3085;SDS011;52812;48.960;9.108;2022-09-01T06:44:26;17.30;;;13.07;;
3085;SDS011;52812;48.960;9.108;2022-09-01T06:46:52;17.10;;;11.87;;
3085;SDS011;52812;48.960;9.108;2022-09-01T06:49:18;15.83;;;12.70;;
3085;SDS011;52812;48.960;9.108;2022-09-01T06:51:45;14.00;;;11.73;;
3085;SDS011;52812;48.960;9.108;2022-09-01T06:54:15;14.97;;;11.10;;
3085;SDS011;52812;48.960;9.108;2022-09-01T06:56:43;16.30;;;12.17;;
3085;SDS011;52812;48.960;9.108;2022-09-01T06:59:09;12.13;;;10.33;;
3085;SDS011;52812;48.960;9.108;2022-09-01T07:01:39;13.67;;;10.80;;
3085;SDS011;52812;48.960;9.108;2022-09-01T07:04:05;11.23;;;9.33;;
3085;SDS011;52812;48.960;9.108;2022-09-01T07:06:30;14.17;;;9.20;;
3085;SDS011;52812;48.960;9.108;2022-09-01T07:08:57;11.00;;;8.87;;
3085;SDS011;52812;48.960;9.108;2022-09-01T07:11:25;10.33;;;9.10;;
3085;SDS011;52812;48.960;9.108;2022-09-01T07:14:01;11.57;;;9.47;;
3085;SDS011;52812;48.960;9.108;2022-09-01T07:16:29;10.30;;;8.67;;
3085;SDS011;52812;48.960;9.108;2022-09-01T07:18:58;9.90;;;8.50;;
3085;SDS011;52812;48.960;9.108;2022-09-01T07:21:26;9.53;;;8.17;;
3085;SDS011;52812;48.960;9.108;2022-09-01T07:23:53;9.37;;;8.00;;
3085;SDS011;52812;48.960;9.108;2022-09-01T07:26:21;9.00;;;7.60;;
3085;SDS011;52812;48.960;9.108;2022-09-01T07:28:49;10.03;;;7.27;;
3085;SDS011;52812;48.960;9.108;2022-09-01T07:31:26;8.87;;;7.47;;
3085;SDS011;52812;48.960;9.108;2022-09-01T07:34:03;7.97;;;7.10;;
3085;SDS011;52812;48.960;9.108;2022-09-01T07:36:36;11.33;;;6.83;;
3085;SDS011;52812;48.960;9.108;2022-09-01T07:39:03;6.50;;;5.67;;
3085;SDS011;52812;48.960;9.108;2022-09-01T07:41:29;7.07;;;6.37;;
3085;SDS011;52812;48.960;9.108;2022-09-01T07:43:56;6.77;;;6.07;;
3085;SDS011;52812;48.960;9.108;2022-09-01T07:46:25;7.23;;;6.40;;
3085;SDS011;52812;48.960;9.108;2022-09-01T07:48:53;8.47;;;7.00;;
3085;SDS011;52812;48.960;9.108;2022-09-01T07:51:20;7.60;;;6.27;;
3085;SDS011;52812;48.960;9.108;2022-09-01T07:53:47;7.43;;;6.63;;
3085;SDS011;52812;48.960;9.108;2022-09-01T07:56:14;7.70;;;6.90;;
3085;SDS011;52812;48.960;9.108;2022-09-01T07:58:43;7.00;;;6.30;;
3085;SDS011;52812;48.960;9.108;2022-09-01T08:01:10;8.90;;;7.60;;
3085;SDS011;52812;48.960;9.108;2022-09-01T08:03:38;8.43;;;7.50;;
3085;SDS011;52812;48.960;9.108;2022-09-01T08:06:05;8.73;;;7.80;;
3085;SDS011;52812;48.960;9.108;2022-09-01T08:08:33;7.77;;;6.97;;
3085;SDS011;52812;48.960;9.108;2022-09-01T08:11:00;7.13;;;6.43;;
3085;SDS011;52812;48.960;9.108;2022-09-01T08:13:26;7.97;;;6.40;;
3085;SDS011;52812;48.960;9.108;2022-09-01T08:15:52;8.03;;;6.87;;
3085;SDS011;52812;48.960;9.108;2022-09-01T08:18:17;8.90;;;7.37;;
3085;SDS011;52812;48.960;9.108;2022-09-01T08:20:43;8.53;;;7.03;;
3085;SDS011;52812;48.960;9.108;2022-09-01T08:23:12;7.93;;;7.13;;
3085;SDS011;52812;48.960;9.108;2022-09-01T08:25:40;6.63;;;6.03;;
3085;SDS011;52812;48.960;9.108;2022-09-01T08:28:06;8.30;;;7.00;;
3085;SDS011;52812;48.960;9.108;2022-09-01T08:30:32;7.17;;;6.47;;
3085;SDS011;52812;48.960;9.108;2022-09-01T08:32:59;7.40;;;6.70;;
3085;SDS011;52812;48.960;9.108;2022-09-01T08:35:25;8.00;;;7.23;;
3085;SDS011;52812;48.960;9.108;2022-09-01T08:37:53;6.83;;;6.13;;
3085;SDS011;52812;48.960;9.108;2022-09-01T08:40:21;8.13;;;6.97;;
3085;SDS011;52812;48.960;9.108;2022-09-01T08:42:53;8.97;;;7.10;;
3085;SDS011;52812;48.960;9.108;2022-09-01T08:45:43;10.20;;;7.10;;
3085;SDS011;52812;48.960;9.108;2022-09-01T08:48:19;8.83;;;6.60;;
3085;SDS011;52812;48.960;9.108;2022-09-01T08:50:50;7.53;;;6.80;;
3085;SDS011;52812;48.960;9.108;2022-09-01T08:53:27;7.20;;;6.00;;
3085;SDS011;52812;48.960;9.108;2022-09-01T08:55:57;8.47;;;6.60;;
3085;SDS011;52812;48.960;9.108;2022-09-01T08:58:24;6.13;;;5.47;;
3085;SDS011;52812;48.960;9.108;2022-09-01T09:01:35;7.53;;;5.97;;
3085;SDS011;52812;48.960;9.108;2022-09-01T09:07:15;8.13;;;6.43;;
3085;SDS011;52812;48.960;9.108;2022-09-01T09:09:57;6.70;;;6.10;;
3085;SDS011;52812;48.960;9.108;2022-09-01T09:12:31;7.90;;;6.90;;
3085;SDS011;52812;48.960;9.108;2022-09-01T09:17:58;6.03;;;5.43;;
3085;SDS011;52812;48.960;9.108;2022-09-01T09:20:33;6.80;;;5.97;;
3085;SDS011;52812;48.960;9.108;2022-09-01T09:23:10;8.77;;;5.63;;
3085;SDS011;52812;48.960;9.108;2022-09-01T09:25:44;7.37;;;6.17;;
3085;SDS011;52812;48.960;9.108;2022-09-01T09:28:11;6.90;;;6.20;;
3085;SDS011;52812;48.960;9.108;2022-09-01T09:30:37;6.10;;;5.60;;
3085;SDS011;52812;48.960;9.108;2022-09-01T09:33:04;7.17;;;5.43;;
3085;SDS011;52812;48.960;9.108;2022-09-01T09:35:36;6.70;;;5.23;;
3085;SDS011;52812;48.960;9.108;2022-09-01T09:43:35;7.73;;;5.97;;
3085;SDS011;52812;48.960;9.108;2022-09-01T09:49:11;7.83;;;5.80;;
3085;SDS011;52812;48.960;9.108;2022-09-01T09:51:52;7.50;;;5.20;;
3085;SDS011;52812;48.960;9.108;2022-09-01T09:54:31;6.00;;;5.40;;
3085;SDS011;52812;48.960;9.108;2022-09-01T09:59:35;6.97;;;5.00;;
3085;SDS011;52812;48.960;9.108;2022-09-01T10:04:52;5.40;;;4.90;;
3085;SDS011;52812;48.960;9.108;2022-09-01T10:09:50;5.77;;;5.17;;
3085;SDS011;52812;48.960;9.108;2022-09-01T10:12:16;5.67;;;5.17;;
3085;SDS011;52812;48.960;9.108;2022-09-01T10:14:44;5.60;;;5.10;;
3085;SDS011;52812;48.960;9.108;2022-09-01T10:17:24;6.50;;;5.80;;
3085;SDS011;52812;48.960;9.108;2022-09-01T10:19:56;5.70;;;5.17;;
3085;SDS011;52812;48.960;9.108;2022-09-01T10:22:30;5.47;;;4.97;;
3085;SDS011;52812;48.960;9.108;2022-09-01T10:24:57;5.73;;;5.23;;
3085;SDS011;52812;48.960;9.108;2022-09-01T10:27:25;6.97;;;5.07;;
3085;SDS011;52812;48.960;9.108;2022-09-01T10:29:56;5.50;;;5.00;;
3085;SDS011;52812;48.960;9.108;2022-09-01T10:32:39;5.43;;;4.93;;
3085;SDS011;52812;48.960;9.108;2022-09-01T10:35:45;5.30;;;4.63;;
3085;SDS011;52812;48.960;9.108;2022-09-01T10:38:09;5.03;;;4.63;;
3085;SDS011;52812;48.960;9.108;2022-09-01T10:40:52;4.90;;;4.50;;
3085;SDS011;52812;48.960;9.108;2022-09-01T10:48:43;6.80;;;5.60;;
3085;SDS011;52812;48.960;9.108;2022-09-01T10:53:44;4.77;;;4.37;;
3085;SDS011;52812;48.960;9.108;2022-09-01T10:58:52;4.87;;;4.37;;
3085;SDS011;52812;48.960;9.108;2022-09-01T11:02:08;5.67;;;4.80;;
3085;SDS011;52812;48.960;9.108;2022-09-01T11:04:21;5.10;;;4.60;;
3085;SDS011;52812;48.960;9.108;2022-09-01T11:07:28;5.07;;;4.67;;
3085;SDS011;52812;48.960;9.108;2022-09-01T11:15:53;5.23;;;4.73;;
3085;SDS011;52812;48.960;9.108;2022-09-01T11:18:23;5.73;;;4.27;;
3085;SDS011;52812;48.960;9.108;2022-09-01T11:20:54;5.03;;;4.50;;
3085;SDS011;52812;48.960;9.108;2022-09-01T11:27:02;4.90;;;4.50;;
3085;SDS011;52812;48.960;9.108;2022-09-01T11:32:24;5.47;;;4.97;;
3085;SDS011;52812;48.960;9.108;2022-09-01T11:34:56;6.53;;;5.60;;
3085;SDS011;52812;48.960;9.108;2022-09-01T11:37:25;5.30;;;4.73;;
3085;SDS011;52812;48.960;9.108;2022-09-01T11:39:52;5.50;;;5.00;;
3085;SDS011;52812;48.960;9.108;2022-09-01T11:44:55;5.40;;;4.90;;
3085;SDS011;52812;48.960;9.108;2022-09-01T11:47:27;5.70;;;5.10;;
3085;SDS011;52812;48.960;9.108;2022-09-01T11:52:28;5.17;;;4.67;;
3085;SDS011;52812;48.960;9.108;2022-09-01T11:55:03;4.77;;;4.37;;
3085;SDS011;52812;48.960;9.108;2022-09-01T11:57:32;5.30;;;4.80;;
3085;SDS011;52812;48.960;9.108;2022-09-01T12:00:01;4.73;;;4.33;;
3085;SDS011;52812;48.960;9.108;2022-09-01T12:02:34;7.00;;;4.60;;
3085;SDS011;52812;48.960;9.108;2022-09-01T12:05:21;5.00;;;4.60;;
3085;SDS011;52812;48.960;9.108;2022-09-01T12:07:52;5.70;;;5.10;;
3085;SDS011;52812;48.960;9.108;2022-09-01T12:10:21;5.40;;;4.90;;
3085;SDS011;52812;48.960;9.108;2022-09-01T12:15:31;5.40;;;4.90;;
3085;SDS011;52812;48.960;9.108;2022-09-01T12:18:13;5.30;;;4.80;;
3085;SDS011;52812;48.960;9.108;2022-09-01T12:20:43;5.27;;;4.70;;
3085;SDS011;52812;48.960;9.108;2022-09-01T12:23:16;7.23;;;4.87;;
3085;SDS011;52812;48.960;9.108;2022-09-01T12:25:52;5.40;;;4.43;;
3085;SDS011;52812;48.960;9.108;2022-09-01T12:28:20;6.40;;;4.53;;
3085;SDS011;52812;48.960;9.108;2022-09-01T12:30:47;5.83;;;4.17;;
3085;SDS011;52812;48.960;9.108;2022-09-01T12:33:14;5.90;;;4.80;;
3085;SDS011;52812;48.960;9.108;2022-09-01T12:35:42;5.13;;;4.63;;
3085;SDS011;52812;48.960;9.108;2022-09-01T12:38:20;4.77;;;4.37;;
3085;SDS011;52812;48.960;9.108;2022-09-01T12:40:54;4.77;;;4.37;;
3085;SDS011;52812;48.960;9.108;2022-09-01T12:43:31;5.23;;;4.73;;
3085;SDS011;52812;48.960;9.108;2022-09-01T12:46:00;5.60;;;5.10;;
3085;SDS011;52812;48.960;9.108;2022-09-01T12:48:35;5.60;;;4.93;;
3085;SDS011;52812;48.960;9.108;2022-09-01T12:51:24;6.83;;;4.70;;
3085;SDS011;52812;48.960;9.108;2022-09-01T12:53:51;5.43;;;4.93;;
3085;SDS011;52812;48.960;9.108;2022-09-01T12:56:29;4.73;;;4.33;;
3085;SDS011;52812;48.960;9.108;2022-09-01T12:59:07;5.50;;;5.00;;
3085;SDS011;52812;48.960;9.108;2022-09-01T13:01:36;5.10;;;4.70;;
3085;SDS011;52812;48.960;9.108;2022-09-01T13:06:52;4.30;;;3.90;;
3085;SDS011;52812;48.960;9.108;2022-09-01T13:09:19;4.43;;;4.03;;
3085;SDS011;52812;48.960;9.108;2022-09-01T13:11:44;4.00;;;3.70;;
3085;SDS011;52812;48.960;9.108;2022-09-01T13:14:14;4.57;;;4.17;;
3085;SDS011;52812;48.960;9.108;2022-09-01T13:16:41;4.83;;;4.43;;
3085;SDS011;52812;48.960;9.108;2022-09-01T13:19:06;5.30;;;4.80;;
3085;SDS011;52812;48.960;9.108;2022-09-01T13:21:32;4.50;;;4.10;;
3085;SDS011;52812;48.960;9.108;2022-09-01T13:23:59;5.00;;;4.50;;
3085;SDS011;52812;48.960;9.108;2022-09-01T13:26:27;4.17;;;3.87;;
3085;SDS011;52812;48.960;9.108;2022-09-01T13:28:55;4.17;;;3.77;;
3085;SDS011;52812;48.960;9.108;2022-09-01T13:31:22;6.77;;;4.30;;
3085;SDS011;52812;48.960;9.108;2022-09-01T13:33:48;5.40;;;4.47;;
3085;SDS011;52812;48.960;9.108;2022-09-01T13:36:13;4.80;;;4.40;;
3085;SDS011;52812;48.960;9.108;2022-09-01T13:38:39;4.70;;;4.30;;
3085;SDS011;52812;48.960;9.108;2022-09-01T13:41:05;5.00;;;4.43;;
3085;SDS011;52812;48.960;9.108;2022-09-01T13:43:32;5.40;;;5.00;;
3085;SDS011;52812;48.960;9.108;2022-09-01T13:45:59;4.80;;;4.40;;
3085;SDS011;52812;48.960;9.108;2022-09-01T13:48:24;4.93;;;4.43;;
3085;SDS011;52812;48.960;9.108;2022-09-01T13:50:52;5.30;;;4.80;;
3085;SDS011;52812;48.960;9.108;2022-09-01T13:53:17;5.00;;;4.60;;
3085;SDS011;52812;48.960;9.108;2022-09-01T13:55:43;6.63;;;6.03;;
3085;SDS011;52812;48.960;9.108;2022-09-01T13:58:09;7.17;;;6.47;;
3085;SDS011;52812;48.960;9.108;2022-09-01T14:00:40;5.83;;;5.33;;
3085;SDS011;52812;48.960;9.108;2022-09-01T14:03:10;6.70;;;6.10;;
3085;SDS011;52812;48.960;9.108;2022-09-01T14:05:39;7.00;;;6.40;;
3085;SDS011;52812;48.960;9.108;2022-09-01T14:08:06;6.27;;;5.70;;
3085;SDS011;52812;48.960;9.108;2022-09-01T14:10:37;5.97;;;5.47;;
3085;SDS011;52812;48.960;9.108;2022-09-01T14:13:10;5.50;;;5.00;;
3085;SDS011;52812;48.960;9.108;2022-09-01T14:15:36;5.30;;;4.90;;
3085;SDS011;52812;48.960;9.108;2022-09-01T14:18:02;7.33;;;4.50;;
3085;SDS011;52812;48.960;9.108;2022-09-01T14:20:30;7.40;;;4.50;;
3085;SDS011;52812;48.960;9.108;2022-09-01T14:23:00;4.83;;;4.43;;
3085;SDS011;52812;48.960;9.108;2022-09-01T14:25:27;6.23;;;4.20;;
3085;SDS011;52812;48.960;9.108;2022-09-01T14:27:53;4.50;;;4.10;;
3085;SDS011;52812;48.960;9.108;2022-09-01T14:30:22;5.20;;;4.50;;
3085;SDS011;52812;48.960;9.108;2022-09-01T14:32:49;4.80;;;4.33;;
3085;SDS011;52812;48.960;9.108;2022-09-01T14:35:15;4.93;;;4.50;;
3085;SDS011;52812;48.960;9.108;2022-09-01T14:37:43;4.70;;;4.30;;
3085;SDS011;52812;48.960;9.108;2022-09-01T14:40:09;5.03;;;4.63;;
3085;SDS011;52812;48.960;9.108;2022-09-01T14:42:39;4.67;;;4.27;;
3085;SDS011;52812;48.960;9.108;2022-09-01T14:45:11;4.87;;;4.37;;
3085;SDS011;52812;48.960;9.108;2022-09-01T14:47:39;4.90;;;4.50;;
3085;SDS011;52812;48.960;9.108;2022-09-01T14:50:05;5.33;;;4.83;;
3085;SDS011;52812;48.960;9.108;2022-09-01T14:52:31;5.27;;;3.97;;
3085;SDS011;52812;48.960;9.108;2022-09-01T14:54:57;4.60;;;4.20;;
3085;SDS011;52812;48.960;9.108;2022-09-01T14:57:23;4.77;;;4.37;;
3085;SDS011;52812;48.960;9.108;2022-09-01T14:59:48;5.90;;;4.00;;
3085;SDS011;52812;48.960;9.108;2022-09-01T15:02:14;4.30;;;3.87;;
3085;SDS011;52812;48.960;9.108;2022-09-01T15:04:39;4.47;;;4.07;;
3085;SDS011;52812;48.960;9.108;2022-09-01T15:07:06;4.60;;;3.90;;
3085;SDS011;52812;48.960;9.108;2022-09-01T15:09:32;4.50;;;4.10;;
3085;SDS011;52812;48.960;9.108;2022-09-01T15:11:59;4.13;;;3.73;;
3085;SDS011;52812;48.960;9.108;2022-09-01T15:14:25;4.50;;;4.10;;
3085;SDS011;52812;48.960;9.108;2022-09-01T15:16:51;4.30;;;4.00;;
3085;SDS011;52812;48.960;9.108;2022-09-01T15:19:16;4.37;;;3.97;;
3085;SDS011;52812;48.960;9.108;2022-09-01T15:21:43;4.47;;;4.07;;
3085;SDS011;52812;48.960;9.108;2022-09-01T15:24:10;5.23;;;4.47;;
3085;SDS011;52812;48.960;9.108;2022-09-01T15:26:36;4.67;;;4.27;;
3085;SDS011;52812;48.960;9.108;2022-09-01T15:29:04;5.03;;;4.37;;
3085;SDS011;52812;48.960;9.108;2022-09-01T15:31:30;6.10;;;4.10;;
3085;SDS011;52812;48.960;9.108;2022-09-01T15:33:58;5.10;;;4.60;;
3085;SDS011;52812;48.960;9.108;2022-09-01T15:36:26;4.80;;;4.40;;
3085;SDS011;52812;48.960;9.108;2022-09-01T15:38:53;4.60;;;4.20;;
3085;SDS011;52812;48.960;9.108;2022-09-01T15:41:23;5.03;;;4.00;;
3085;SDS011;52812;48.960;9.108;2022-09-01T15:43:50;4.27;;;3.93;;
3085;SDS011;52812;48.960;9.108;2022-09-01T15:46:17;4.67;;;4.20;;
3085;SDS011;52812;48.960;9.108;2022-09-01T15:48:43;4.70;;;4.30;;
3085;SDS011;52812;48.960;9.108;2022-09-01T15:53:47;5.30;;;4.33;;
3085;SDS011;52812;48.960;9.108;2022-09-01T15:56:13;4.07;;;3.77;;
3085;SDS011;52812;48.960;9.108;2022-09-01T15:58:42;4.90;;;4.40;;
3085;SDS011;52812;48.960;9.108;2022-09-01T16:01:09;4.60;;;4.20;;
3085;SDS011;52812;48.960;9.108;2022-09-01T16:03:34;5.40;;;4.90;;